sensor_id;sensor_type;location;lat;lon;timestamp;P1;durP1;ratioP1;P2;durP2;ratioP2
16407;SDS011;8313;49.894;8.084;2023-04-16T00:02:17;8.00;;;5.37;;
16407;SDS011;8313;49.894;8.084;2023-04-16T00:04:42;8.43;;;5.87;;
16407;SDS011;8313;49.894;8.084;2023-04-16T00:07:08;8.40;;;5.93;;
16407;SDS011;8313;49.894;8.084;2023-04-16T00:09:34;10.47;;;6.30;;
16407;SDS011;8313;49.894;8.084;2023-04-16T00:12:00;8.00;;;5.17;;
16407;SDS011;8313;49.894;8.084;2023-04-16T00:14:25;10.23;;;6.23;;
16407;SDS011;8313;49.894;8.084;2023-04-16T00:16:51;6.37;;;5.00;;
16407;SDS011;8313;49.894;8.084;2023-04-16T00:19:17;9.43;;;6.00;;
16407;SDS011;8313;49.894;8.084;2023-04-16T00:21:43;8.97;;;6.33;;
16407;SDS011;8313;49.894;8.084;2023-04-16T00:24:08;10.93;;;6.87;;
16407;SDS011;8313;49.894;8.084;2023-04-16T00:26:34;8.53;;;5.80;;
16407;SDS011;8313;49.894;8.084;2023-04-16T00:29:00;11.87;;;6.47;;
16407;SDS011;8313;49.894;8.084;2023-04-16T00:31:29;10.47;;;6.60;;
16407;SDS011;8313;49.894;8.084;2023-04-16T00:33:56;8.43;;;6.13;;
16407;SDS011;8313;49.894;8.084;2023-04-16T00:36:23;8.70;;;5.97;;
16407;SDS011;8313;49.894;8.084;2023-04-16T00:38:50;8.63;;;6.23;;
16407;SDS011;8313;49.894;8.084;2023-04-16T00:41:15;10.33;;;6.27;;
16407;SDS011;8313;49.894;8.084;2023-04-16T00:43:41;12.40;;;6.97;;
16407;SDS011;8313;49.894;8.084;2023-04-16T00:46:07;11.57;;;6.47;;
16407;SDS011;8313;49.894;8.084;2023-04-16T00:48:33;12.63;;;7.70;;
16407;SDS011;8313;49.894;8.084;2023-04-16T00:51:05;10.57;;;6.73;;
16407;SDS011;8313;49.894;8.084;2023-04-16T00:53:31;9.77;;;6.37;;
16407;SDS011;8313;49.894;8.084;2023-04-16T00:55:58;10.30;;;6.43;;
16407;SDS011;8313;49.894;8.084;2023-04-16T00:58:24;11.33;;;6.40;;
16407;SDS011;8313;49.894;8.084;2023-04-16T01:00:50;11.27;;;7.20;;
16407;SDS011;8313;49.894;8.084;2023-04-16T01:03:16;10.23;;;7.10;;
16407;SDS011;8313;49.894;8.084;2023-04-16T01:05:42;11.10;;;6.17;;
16407;SDS011;8313;49.894;8.084;2023-04-16T01:08:17;11.00;;;6.47;;
16407;SDS011;8313;49.894;8.084;2023-04-16T01:10:44;10.70;;;6.70;;
16407;SDS011;8313;49.894;8.084;2023-04-16T01:13:10;11.73;;;7.37;;
16407;SDS011;8313;49.894;8.084;2023-04-16T01:15:36;11.40;;;6.87;;
16407;SDS011;8313;49.894;8.084;2023-04-16T01:18:02;12.73;;;6.90;;
16407;SDS011;8313;49.894;8.084;2023-04-16T01:20:39;10.23;;;6.00;;
16407;SDS011;8313;49.894;8.084;2023-04-16T01:23:05;9.30;;;5.87;;
16407;SDS011;8313;49.894;8.084;2023-04-16T01:25:30;10.67;;;7.60;;
16407;SDS011;8313;49.894;8.084;2023-04-16T01:27:56;14.30;;;7.27;;
16407;SDS011;8313;49.894;8.084;2023-04-16T01:30:23;13.10;;;7.13;;
16407;SDS011;8313;49.894;8.084;2023-04-16T01:33:10;10.20;;;6.80;;
16407;SDS011;8313;49.894;8.084;2023-04-16T01:35:37;13.40;;;8.83;;
16407;SDS011;8313;49.894;8.084;2023-04-16T01:38:04;13.63;;;8.03;;
16407;SDS011;8313;49.894;8.084;2023-04-16T01:40:30;12.10;;;7.10;;
16407;SDS011;8313;49.894;8.084;2023-04-16T01:42:57;11.50;;;6.50;;
16407;SDS011;8313;49.894;8.084;2023-04-16T01:45:23;11.90;;;7.47;;
16407;SDS011;8313;49.894;8.084;2023-04-16T01:47:49;13.23;;;7.80;;
16407;SDS011;8313;49.894;8.084;2023-04-16T01:50:16;12.63;;;7.80;;
16407;SDS011;8313;49.894;8.084;2023-04-16T01:52:43;12.77;;;7.37;;
16407;SDS011;8313;49.894;8.084;2023-04-16T01:55:08;13.07;;;7.80;;
16407;SDS011;8313;49.894;8.084;2023-04-16T01:57:34;11.90;;;7.10;;
16407;SDS011;8313;49.894;8.084;2023-04-16T02:00:01;11.30;;;7.60;;
16407;SDS011;8313;49.894;8.084;2023-04-16T02:02:29;10.87;;;6.40;;
16407;SDS011;8313;49.894;8.084;2023-04-16T02:04:56;13.07;;;7.43;;
16407;SDS011;8313;49.894;8.084;2023-04-16T02:07:22;13.90;;;7.30;;
16407;SDS011;8313;49.894;8.084;2023-04-16T02:09:48;10.47;;;6.50;;
16407;SDS011;8313;49.894;8.084;2023-04-16T02:12:17;11.00;;;7.23;;
16407;SDS011;8313;49.894;8.084;2023-04-16T02:14:45;12.10;;;7.57;;
16407;SDS011;8313;49.894;8.084;2023-04-16T02:17:13;12.20;;;7.47;;
16407;SDS011;8313;49.894;8.084;2023-04-16T02:19:40;10.67;;;7.50;;
16407;SDS011;8313;49.894;8.084;2023-04-16T02:22:07;12.60;;;7.00;;
16407;SDS011;8313;49.894;8.084;2023-04-16T02:24:33;15.70;;;7.77;;
16407;SDS011;8313;49.894;8.084;2023-04-16T02:27:03;10.03;;;6.40;;
16407;SDS011;8313;49.894;8.084;2023-04-16T02:29:28;12.73;;;7.10;;
16407;SDS011;8313;49.894;8.084;2023-04-16T02:32:02;13.77;;;7.70;;
16407;SDS011;8313;49.894;8.084;2023-04-16T02:34:30;13.87;;;7.20;;
16407;SDS011;8313;49.894;8.084;2023-04-16T02:36:57;13.67;;;7.30;;
16407;SDS011;8313;49.894;8.084;2023-04-16T02:39:23;15.07;;;8.80;;
16407;SDS011;8313;49.894;8.084;2023-04-16T02:41:48;10.90;;;6.93;;
16407;SDS011;8313;49.894;8.084;2023-04-16T02:44:14;18.37;;;8.27;;
16407;SDS011;8313;49.894;8.084;2023-04-16T02:46:40;11.10;;;7.17;;
16407;SDS011;8313;49.894;8.084;2023-04-16T02:49:06;13.00;;;7.20;;
16407;SDS011;8313;49.894;8.084;2023-04-16T02:51:31;15.23;;;8.80;;
16407;SDS011;8313;49.894;8.084;2023-04-16T02:53:57;14.70;;;7.60;;
16407;SDS011;8313;49.894;8.084;2023-04-16T02:56:23;15.37;;;7.77;;
16407;SDS011;8313;49.894;8.084;2023-04-16T02:58:48;11.60;;;7.90;;
16407;SDS011;8313;49.894;8.084;2023-04-16T03:01:14;11.37;;;7.23;;
16407;SDS011;8313;49.894;8.084;2023-04-16T03:03:40;13.77;;;6.87;;
16407;SDS011;8313;49.894;8.084;2023-04-16T03:06:06;12.97;;;7.13;;
16407;SDS011;8313;49.894;8.084;2023-04-16T03:08:31;13.50;;;7.93;;
16407;SDS011;8313;49.894;8.084;2023-04-16T03:10:57;13.57;;;6.87;;
16407;SDS011;8313;49.894;8.084;2023-04-16T03:13:22;11.37;;;6.40;;
16407;SDS011;8313;49.894;8.084;2023-04-16T03:15:48;12.50;;;5.80;;
16407;SDS011;8313;49.894;8.084;2023-04-16T03:18:14;12.13;;;7.93;;
16407;SDS011;8313;49.894;8.084;2023-04-16T03:20:40;7.30;;;5.40;;
16407;SDS011;8313;49.894;8.084;2023-04-16T03:23:06;8.20;;;5.40;;
16407;SDS011;8313;49.894;8.084;2023-04-16T03:25:31;10.07;;;5.83;;
16407;SDS011;8313;49.894;8.084;2023-04-16T03:27:57;7.37;;;4.40;;
16407;SDS011;8313;49.894;8.084;2023-04-16T03:30:22;7.57;;;4.53;;
16407;SDS011;8313;49.894;8.084;2023-04-16T03:32:48;7.10;;;4.17;;
16407;SDS011;8313;49.894;8.084;2023-04-16T03:35:14;10.30;;;5.93;;
16407;SDS011;8313;49.894;8.084;2023-04-16T03:37:40;5.70;;;4.63;;
16407;SDS011;8313;49.894;8.084;2023-04-16T03:40:06;8.43;;;5.43;;
16407;SDS011;8313;49.894;8.084;2023-04-16T03:42:32;8.87;;;4.40;;
16407;SDS011;8313;49.894;8.084;2023-04-16T03:44:58;9.57;;;5.07;;
16407;SDS011;8313;49.894;8.084;2023-04-16T03:47:25;8.20;;;4.67;;
16407;SDS011;8313;49.894;8.084;2023-04-16T03:49:54;6.50;;;4.20;;
16407;SDS011;8313;49.894;8.084;2023-04-16T03:52:20;8.70;;;4.93;;
16407;SDS011;8313;49.894;8.084;2023-04-16T03:54:46;9.50;;;5.57;;
16407;SDS011;8313;49.894;8.084;2023-04-16T03:57:20;6.33;;;4.60;;
16407;SDS011;8313;49.894;8.084;2023-04-16T03:59:46;6.77;;;4.57;;
16407;SDS011;8313;49.894;8.084;2023-04-16T04:02:12;7.27;;;5.07;;
16407;SDS011;8313;49.894;8.084;2023-04-16T04:04:38;10.60;;;5.50;;
16407;SDS011;8313;49.894;8.084;2023-04-16T04:07:03;8.80;;;4.67;;
16407;SDS011;8313;49.894;8.084;2023-04-16T04:09:29;9.03;;;5.70;;
16407;SDS011;8313;49.894;8.084;2023-04-16T04:11:55;9.67;;;5.73;;
16407;SDS011;8313;49.894;8.084;2023-04-16T04:14:21;8.73;;;4.70;;
16407;SDS011;8313;49.894;8.084;2023-04-16T04:16:46;9.20;;;5.77;;
16407;SDS011;8313;49.894;8.084;2023-04-16T04:19:13;8.70;;;5.10;;
16407;SDS011;8313;49.894;8.084;2023-04-16T04:21:39;9.83;;;5.97;;
16407;SDS011;8313;49.894;8.084;2023-04-16T04:24:04;10.97;;;5.73;;
16407;SDS011;8313;49.894;8.084;2023-04-16T04:26:31;8.30;;;5.40;;
16407;SDS011;8313;49.894;8.084;2023-04-16T04:28:57;9.60;;;6.17;;
16407;SDS011;8313;49.894;8.084;2023-04-16T04:31:23;11.90;;;6.40;;
16407;SDS011;8313;49.894;8.084;2023-04-16T04:33:48;9.73;;;4.90;;
16407;SDS011;8313;49.894;8.084;2023-04-16T04:36:15;12.13;;;6.23;;
16407;SDS011;8313;49.894;8.084;2023-04-16T04:38:40;9.30;;;5.80;;
16407;SDS011;8313;49.894;8.084;2023-04-16T04:41:06;9.10;;;5.80;;
16407;SDS011;8313;49.894;8.084;2023-04-16T04:43:34;11.83;;;6.23;;
16407;SDS011;8313;49.894;8.084;2023-04-16T04:46:00;13.90;;;6.30;;
16407;SDS011;8313;49.894;8.084;2023-04-16T04:48:27;12.77;;;7.10;;
16407;SDS011;8313;49.894;8.084;2023-04-16T04:50:53;8.47;;;5.67;;
16407;SDS011;8313;49.894;8.084;2023-04-16T04:53:19;10.37;;;5.93;;
16407;SDS011;8313;49.894;8.084;2023-04-16T04:55:45;13.50;;;7.30;;
16407;SDS011;8313;49.894;8.084;2023-04-16T04:58:11;9.73;;;5.90;;
16407;SDS011;8313;49.894;8.084;2023-04-16T05:00:38;9.73;;;6.37;;
16407;SDS011;8313;49.894;8.084;2023-04-16T05:03:04;12.90;;;7.23;;
16407;SDS011;8313;49.894;8.084;2023-04-16T05:05:33;9.40;;;5.53;;
16407;SDS011;8313;49.894;8.084;2023-04-16T05:08:00;13.87;;;6.80;;
16407;SDS011;8313;49.894;8.084;2023-04-16T05:10:25;14.50;;;7.73;;
16407;SDS011;8313;49.894;8.084;2023-04-16T05:12:51;14.23;;;6.70;;
16407;SDS011;8313;49.894;8.084;2023-04-16T05:15:17;14.67;;;7.90;;
16407;SDS011;8313;49.894;8.084;2023-04-16T05:17:42;14.90;;;6.90;;
16407;SDS011;8313;49.894;8.084;2023-04-16T05:20:08;17.87;;;7.90;;
16407;SDS011;8313;49.894;8.084;2023-04-16T05:22:34;14.00;;;6.60;;
16407;SDS011;8313;49.894;8.084;2023-04-16T05:25:00;16.07;;;7.33;;
16407;SDS011;8313;49.894;8.084;2023-04-16T05:27:25;12.67;;;6.67;;
16407;SDS011;8313;49.894;8.084;2023-04-16T05:29:51;13.17;;;7.93;;
16407;SDS011;8313;49.894;8.084;2023-04-16T05:32:17;14.57;;;7.53;;
16407;SDS011;8313;49.894;8.084;2023-04-16T05:34:42;12.47;;;6.00;;
16407;SDS011;8313;49.894;8.084;2023-04-16T05:37:08;13.47;;;7.20;;
16407;SDS011;8313;49.894;8.084;2023-04-16T05:39:34;13.60;;;7.30;;
16407;SDS011;8313;49.894;8.084;2023-04-16T05:41:59;13.90;;;7.80;;
16407;SDS011;8313;49.894;8.084;2023-04-16T05:44:25;14.97;;;7.80;;
16407;SDS011;8313;49.894;8.084;2023-04-16T05:46:51;13.00;;;7.97;;
16407;SDS011;8313;49.894;8.084;2023-04-16T05:49:16;13.20;;;8.50;;
16407;SDS011;8313;49.894;8.084;2023-04-16T05:51:46;12.40;;;7.23;;
16407;SDS011;8313;49.894;8.084;2023-04-16T05:54:12;15.87;;;7.50;;
16407;SDS011;8313;49.894;8.084;2023-04-16T05:56:38;15.60;;;8.93;;
16407;SDS011;8313;49.894;8.084;2023-04-16T05:59:03;11.50;;;7.47;;
16407;SDS011;8313;49.894;8.084;2023-04-16T06:01:29;11.57;;;6.90;;
16407;SDS011;8313;49.894;8.084;2023-04-16T06:03:55;13.07;;;7.47;;
16407;SDS011;8313;49.894;8.084;2023-04-16T06:06:20;13.20;;;7.70;;
16407;SDS011;8313;49.894;8.084;2023-04-16T06:08:46;12.47;;;7.17;;
16407;SDS011;8313;49.894;8.084;2023-04-16T06:11:12;12.20;;;7.50;;
16407;SDS011;8313;49.894;8.084;2023-04-16T06:13:37;13.17;;;6.87;;
16407;SDS011;8313;49.894;8.084;2023-04-16T06:16:03;10.63;;;6.27;;
16407;SDS011;8313;49.894;8.084;2023-04-16T06:18:29;11.33;;;7.03;;
16407;SDS011;8313;49.894;8.084;2023-04-16T06:20:55;11.57;;;6.63;;
16407;SDS011;8313;49.894;8.084;2023-04-16T06:23:22;11.83;;;6.30;;
16407;SDS011;8313;49.894;8.084;2023-04-16T06:25:48;13.27;;;6.93;;
16407;SDS011;8313;49.894;8.084;2023-04-16T06:28:14;13.47;;;7.13;;
16407;SDS011;8313;49.894;8.084;2023-04-16T06:30:39;11.87;;;5.50;;
16407;SDS011;8313;49.894;8.084;2023-04-16T06:33:05;11.60;;;6.97;;
16407;SDS011;8313;49.894;8.084;2023-04-16T06:35:30;10.67;;;5.87;;
16407;SDS011;8313;49.894;8.084;2023-04-16T06:37:56;10.80;;;6.23;;
16407;SDS011;8313;49.894;8.084;2023-04-16T06:40:22;12.03;;;6.53;;
16407;SDS011;8313;49.894;8.084;2023-04-16T06:42:47;15.73;;;6.60;;
16407;SDS011;8313;49.894;8.084;2023-04-16T06:45:19;12.90;;;7.80;;
16407;SDS011;8313;49.894;8.084;2023-04-16T06:47:53;11.27;;;6.50;;
16407;SDS011;8313;49.894;8.084;2023-04-16T06:50:18;9.93;;;5.67;;
16407;SDS011;8313;49.894;8.084;2023-04-16T06:52:45;14.07;;;6.83;;
16407;SDS011;8313;49.894;8.084;2023-04-16T06:55:10;12.13;;;6.40;;
16407;SDS011;8313;49.894;8.084;2023-04-16T06:57:36;10.23;;;6.50;;
16407;SDS011;8313;49.894;8.084;2023-04-16T07:00:02;9.20;;;5.90;;
16407;SDS011;8313;49.894;8.084;2023-04-16T07:02:29;12.20;;;6.63;;
16407;SDS011;8313;49.894;8.084;2023-04-16T07:04:55;12.10;;;7.67;;
16407;SDS011;8313;49.894;8.084;2023-04-16T07:07:20;12.07;;;7.73;;
16407;SDS011;8313;49.894;8.084;2023-04-16T07:09:46;12.83;;;6.87;;
16407;SDS011;8313;49.894;8.084;2023-04-16T07:12:11;10.50;;;6.67;;
16407;SDS011;8313;49.894;8.084;2023-04-16T07:14:37;13.03;;;6.93;;
16407;SDS011;8313;49.894;8.084;2023-04-16T07:17:03;14.40;;;6.80;;
16407;SDS011;8313;49.894;8.084;2023-04-16T07:19:29;13.90;;;7.00;;
16407;SDS011;8313;49.894;8.084;2023-04-16T07:21:57;12.77;;;7.50;;
16407;SDS011;8313;49.894;8.084;2023-04-16T07:24:26;12.50;;;7.23;;
16407;SDS011;8313;49.894;8.084;2023-04-16T07:26:51;13.30;;;6.80;;
16407;SDS011;8313;49.894;8.084;2023-04-16T07:29:17;13.60;;;6.80;;
16407;SDS011;8313;49.894;8.084;2023-04-16T07:31:43;12.10;;;6.83;;
16407;SDS011;8313;49.894;8.084;2023-04-16T07:34:09;12.80;;;6.60;;
16407;SDS011;8313;49.894;8.084;2023-04-16T07:36:35;12.67;;;7.67;;
16407;SDS011;8313;49.894;8.084;2023-04-16T07:39:00;9.60;;;6.50;;
16407;SDS011;8313;49.894;8.084;2023-04-16T07:41:26;13.07;;;8.27;;
16407;SDS011;8313;49.894;8.084;2023-04-16T07:43:53;13.37;;;7.43;;
16407;SDS011;8313;49.894;8.084;2023-04-16T07:46:19;11.37;;;6.97;;
16407;SDS011;8313;49.894;8.084;2023-04-16T07:48:46;14.77;;;7.23;;
16407;SDS011;8313;49.894;8.084;2023-04-16T07:51:12;14.67;;;7.50;;
16407;SDS011;8313;49.894;8.084;2023-04-16T07:53:37;11.40;;;6.90;;
16407;SDS011;8313;49.894;8.084;2023-04-16T07:56:03;12.77;;;6.80;;
16407;SDS011;8313;49.894;8.084;2023-04-16T07:58:29;10.60;;;6.60;;
16407;SDS011;8313;49.894;8.084;2023-04-16T08:00:55;13.30;;;6.77;;
16407;SDS011;8313;49.894;8.084;2023-04-16T08:03:20;9.40;;;5.77;;
16407;SDS011;8313;49.894;8.084;2023-04-16T08:05:46;11.13;;;6.40;;
16407;SDS011;8313;49.894;8.084;2023-04-16T08:08:12;10.27;;;6.83;;
16407;SDS011;8313;49.894;8.084;2023-04-16T08:10:38;8.77;;;5.50;;
16407;SDS011;8313;49.894;8.084;2023-04-16T08:13:03;8.93;;;5.90;;
16407;SDS011;8313;49.894;8.084;2023-04-16T08:15:29;10.33;;;5.70;;
16407;SDS011;8313;49.894;8.084;2023-04-16T08:17:55;13.53;;;7.87;;
16407;SDS011;8313;49.894;8.084;2023-04-16T08:20:21;13.77;;;8.67;;
16407;SDS011;8313;49.894;8.084;2023-04-16T08:22:47;13.90;;;8.60;;
16407;SDS011;8313;49.894;8.084;2023-04-16T08:25:13;15.80;;;10.40;;
16407;SDS011;8313;49.894;8.084;2023-04-16T08:27:39;14.90;;;8.43;;
16407;SDS011;8313;49.894;8.084;2023-04-16T08:30:06;11.10;;;7.40;;
16407;SDS011;8313;49.894;8.084;2023-04-16T08:32:32;12.57;;;8.00;;
16407;SDS011;8313;49.894;8.084;2023-04-16T08:34:58;13.33;;;7.83;;
16407;SDS011;8313;49.894;8.084;2023-04-16T08:37:24;12.67;;;7.13;;
16407;SDS011;8313;49.894;8.084;2023-04-16T08:39:50;11.43;;;7.20;;
16407;SDS011;8313;49.894;8.084;2023-04-16T08:42:23;11.20;;;7.60;;
16407;SDS011;8313;49.894;8.084;2023-04-16T08:45:22;14.33;;;7.80;;
16407;SDS011;8313;49.894;8.084;2023-04-16T08:47:51;14.63;;;7.17;;
16407;SDS011;8313;49.894;8.084;2023-04-16T08:50:24;16.53;;;7.43;;
16407;SDS011;8313;49.894;8.084;2023-04-16T08:53:02;9.60;;;6.23;;
16407;SDS011;8313;49.894;8.084;2023-04-16T08:55:41;11.63;;;6.70;;
16407;SDS011;8313;49.894;8.084;2023-04-16T08:58:16;11.60;;;6.37;;
16407;SDS011;8313;49.894;8.084;2023-04-16T09:00:43;15.33;;;7.97;;
16407;SDS011;8313;49.894;8.084;2023-04-16T09:03:12;12.13;;;7.03;;
16407;SDS011;8313;49.894;8.084;2023-04-16T09:05:38;9.97;;;6.40;;
16407;SDS011;8313;49.894;8.084;2023-04-16T09:08:07;14.90;;;7.53;;
16407;SDS011;8313;49.894;8.084;2023-04-16T09:10:33;14.37;;;7.17;;
16407;SDS011;8313;49.894;8.084;2023-04-16T09:12:59;17.27;;;8.13;;
16407;SDS011;8313;49.894;8.084;2023-04-16T09:15:25;14.70;;;8.17;;
16407;SDS011;8313;49.894;8.084;2023-04-16T09:17:51;16.63;;;8.70;;
16407;SDS011;8313;49.894;8.084;2023-04-16T09:20:18;14.27;;;7.67;;
16407;SDS011;8313;49.894;8.084;2023-04-16T09:22:44;13.77;;;6.97;;
16407;SDS011;8313;49.894;8.084;2023-04-16T09:25:10;14.53;;;7.60;;
16407;SDS011;8313;49.894;8.084;2023-04-16T09:27:37;13.23;;;8.87;;
16407;SDS011;8313;49.894;8.084;2023-04-16T09:30:23;15.27;;;8.60;;
16407;SDS011;8313;49.894;8.084;2023-04-16T09:32:50;16.70;;;8.57;;
16407;SDS011;8313;49.894;8.084;2023-04-16T09:35:17;16.83;;;8.93;;
16407;SDS011;8313;49.894;8.084;2023-04-16T09:37:53;18.00;;;10.03;;
16407;SDS011;8313;49.894;8.084;2023-04-16T09:40:24;15.87;;;9.13;;
16407;SDS011;8313;49.894;8.084;2023-04-16T09:42:51;16.83;;;9.93;;
16407;SDS011;8313;49.894;8.084;2023-04-16T09:45:20;19.17;;;9.77;;
16407;SDS011;8313;49.894;8.084;2023-04-16T09:47:46;14.23;;;9.30;;
16407;SDS011;8313;49.894;8.084;2023-04-16T09:50:15;12.73;;;7.50;;
16407;SDS011;8313;49.894;8.084;2023-04-16T09:52:44;17.67;;;9.43;;
16407;SDS011;8313;49.894;8.084;2023-04-16T09:55:12;16.70;;;9.50;;
16407;SDS011;8313;49.894;8.084;2023-04-16T09:57:38;16.47;;;9.40;;
16407;SDS011;8313;49.894;8.084;2023-04-16T10:00:04;20.47;;;10.07;;
16407;SDS011;8313;49.894;8.084;2023-04-16T10:02:31;17.30;;;10.00;;
16407;SDS011;8313;49.894;8.084;2023-04-16T10:04:59;18.83;;;9.80;;
16407;SDS011;8313;49.894;8.084;2023-04-16T10:07:32;20.40;;;10.77;;
16407;SDS011;8313;49.894;8.084;2023-04-16T10:09:58;17.43;;;9.50;;
16407;SDS011;8313;49.894;8.084;2023-04-16T10:12:24;12.27;;;8.20;;
16407;SDS011;8313;49.894;8.084;2023-04-16T10:14:51;13.10;;;7.60;;
16407;SDS011;8313;49.894;8.084;2023-04-16T10:17:16;18.67;;;9.57;;
16407;SDS011;8313;49.894;8.084;2023-04-16T10:19:43;13.60;;;8.50;;
16407;SDS011;8313;49.894;8.084;2023-04-16T10:22:10;14.40;;;9.00;;
16407;SDS011;8313;49.894;8.084;2023-04-16T10:24:36;16.33;;;9.53;;
16407;SDS011;8313;49.894;8.084;2023-04-16T10:27:02;16.80;;;8.83;;
16407;SDS011;8313;49.894;8.084;2023-04-16T10:29:28;18.37;;;9.33;;
16407;SDS011;8313;49.894;8.084;2023-04-16T10:31:55;19.50;;;9.27;;
16407;SDS011;8313;49.894;8.084;2023-04-16T10:34:22;18.07;;;9.50;;
16407;SDS011;8313;49.894;8.084;2023-04-16T10:36:51;17.67;;;9.37;;
16407;SDS011;8313;49.894;8.084;2023-04-16T10:39:19;18.60;;;9.57;;
16407;SDS011;8313;49.894;8.084;2023-04-16T10:41:46;15.30;;;8.67;;
16407;SDS011;8313;49.894;8.084;2023-04-16T10:44:12;19.00;;;9.30;;
16407;SDS011;8313;49.894;8.084;2023-04-16T10:46:42;19.97;;;10.27;;
16407;SDS011;8313;49.894;8.084;2023-04-16T10:49:22;19.20;;;9.60;;
16407;SDS011;8313;49.894;8.084;2023-04-16T10:52:31;15.33;;;8.80;;
16407;SDS011;8313;49.894;8.084;2023-04-16T10:54:41;13.23;;;7.87;;
16407;SDS011;8313;49.894;8.084;2023-04-16T10:57:07;16.17;;;8.63;;
16407;SDS011;8313;49.894;8.084;2023-04-16T10:59:36;17.07;;;9.13;;
16407;SDS011;8313;49.894;8.084;2023-04-16T11:02:07;12.50;;;7.70;;
16407;SDS011;8313;49.894;8.084;2023-04-16T11:04:37;20.87;;;9.57;;
16407;SDS011;8313;49.894;8.084;2023-04-16T11:12:24;13.80;;;8.27;;
16407;SDS011;8313;49.894;8.084;2023-04-16T11:14:52;16.70;;;10.63;;
16407;SDS011;8313;49.894;8.084;2023-04-16T11:17:32;18.87;;;10.77;;
16407;SDS011;8313;49.894;8.084;2023-04-16T11:20:07;15.97;;;9.27;;
16407;SDS011;8313;49.894;8.084;2023-04-16T11:22:41;18.03;;;9.77;;
16407;SDS011;8313;49.894;8.084;2023-04-16T11:25:07;13.77;;;8.43;;
16407;SDS011;8313;49.894;8.084;2023-04-16T11:27:33;14.87;;;9.03;;
16407;SDS011;8313;49.894;8.084;2023-04-16T11:30:00;13.57;;;9.50;;
16407;SDS011;8313;49.894;8.084;2023-04-16T11:32:30;17.50;;;10.03;;
16407;SDS011;8313;49.894;8.084;2023-04-16T11:34:57;19.40;;;10.20;;
16407;SDS011;8313;49.894;8.084;2023-04-16T11:37:33;19.67;;;9.73;;
16407;SDS011;8313;49.894;8.084;2023-04-16T11:40:00;17.80;;;9.20;;
16407;SDS011;8313;49.894;8.084;2023-04-16T11:42:29;20.00;;;10.30;;
16407;SDS011;8313;49.894;8.084;2023-04-16T11:44:55;15.97;;;9.77;;
16407;SDS011;8313;49.894;8.084;2023-04-16T11:47:22;17.07;;;9.73;;
16407;SDS011;8313;49.894;8.084;2023-04-16T11:49:49;25.70;;;11.70;;
16407;SDS011;8313;49.894;8.084;2023-04-16T11:52:24;17.53;;;11.13;;
16407;SDS011;8313;49.894;8.084;2023-04-16T11:54:52;19.20;;;10.63;;
16407;SDS011;8313;49.894;8.084;2023-04-16T11:59:54;16.30;;;10.20;;
16407;SDS011;8313;49.894;8.084;2023-04-16T12:02:37;16.90;;;10.60;;
16407;SDS011;8313;49.894;8.084;2023-04-16T12:07:51;20.33;;;10.80;;
16407;SDS011;8313;49.894;8.084;2023-04-16T12:10:17;22.97;;;11.03;;
16407;SDS011;8313;49.894;8.084;2023-04-16T12:12:43;18.23;;;10.40;;
16407;SDS011;8313;49.894;8.084;2023-04-16T12:15:09;17.77;;;10.90;;
16407;SDS011;8313;49.894;8.084;2023-04-16T12:17:35;19.70;;;11.63;;
16407;SDS011;8313;49.894;8.084;2023-04-16T12:20:03;19.60;;;10.07;;
16407;SDS011;8313;49.894;8.084;2023-04-16T12:22:35;18.73;;;10.40;;
16407;SDS011;8313;49.894;8.084;2023-04-16T12:25:05;17.57;;;10.50;;
16407;SDS011;8313;49.894;8.084;2023-04-16T12:30:19;14.97;;;10.70;;
16407;SDS011;8313;49.894;8.084;2023-04-16T12:32:47;19.30;;;11.13;;
16407;SDS011;8313;49.894;8.084;2023-04-16T12:35:33;15.87;;;9.90;;
16407;SDS011;8313;49.894;8.084;2023-04-16T12:37:59;16.87;;;10.90;;
16407;SDS011;8313;49.894;8.084;2023-04-16T12:40:25;17.50;;;10.90;;
16407;SDS011;8313;49.894;8.084;2023-04-16T12:42:51;18.80;;;11.23;;
16407;SDS011;8313;49.894;8.084;2023-04-16T12:45:16;16.77;;;11.07;;
16407;SDS011;8313;49.894;8.084;2023-04-16T12:47:42;18.97;;;11.03;;
16407;SDS011;8313;49.894;8.084;2023-04-16T12:50:08;16.53;;;10.47;;
16407;SDS011;8313;49.894;8.084;2023-04-16T12:52:34;15.83;;;10.60;;
16407;SDS011;8313;49.894;8.084;2023-04-16T12:55:00;16.00;;;11.50;;
16407;SDS011;8313;49.894;8.084;2023-04-16T12:57:26;19.23;;;10.87;;
16407;SDS011;8313;49.894;8.084;2023-04-16T12:59:55;16.33;;;9.97;;
16407;SDS011;8313;49.894;8.084;2023-04-16T13:02:22;17.23;;;10.20;;
16407;SDS011;8313;49.894;8.084;2023-04-16T13:04:49;18.77;;;11.17;;
16407;SDS011;8313;49.894;8.084;2023-04-16T13:07:15;18.53;;;9.93;;
16407;SDS011;8313;49.894;8.084;2023-04-16T13:09:42;19.80;;;10.10;;
16407;SDS011;8313;49.894;8.084;2023-04-16T13:12:07;18.57;;;11.80;;
16407;SDS011;8313;49.894;8.084;2023-04-16T13:14:33;17.90;;;9.80;;
16407;SDS011;8313;49.894;8.084;2023-04-16T13:16:59;15.10;;;10.10;;
16407;SDS011;8313;49.894;8.084;2023-04-16T13:19:25;17.93;;;10.40;;
16407;SDS011;8313;49.894;8.084;2023-04-16T13:21:51;18.80;;;10.80;;
16407;SDS011;8313;49.894;8.084;2023-04-16T13:24:17;17.30;;;10.50;;
16407;SDS011;8313;49.894;8.084;2023-04-16T13:26:43;17.77;;;10.77;;
16407;SDS011;8313;49.894;8.084;2023-04-16T13:29:09;18.60;;;10.23;;
16407;SDS011;8313;49.894;8.084;2023-04-16T13:31:35;16.17;;;10.73;;
16407;SDS011;8313;49.894;8.084;2023-04-16T13:34:01;25.60;;;13.40;;
16407;SDS011;8313;49.894;8.084;2023-04-16T13:36:28;19.80;;;12.43;;
16407;SDS011;8313;49.894;8.084;2023-04-16T13:38:56;18.77;;;10.83;;
16407;SDS011;8313;49.894;8.084;2023-04-16T13:41:22;16.70;;;11.17;;
16407;SDS011;8313;49.894;8.084;2023-04-16T13:43:48;18.57;;;11.07;;
16407;SDS011;8313;49.894;8.084;2023-04-16T13:46:14;17.37;;;10.27;;
16407;SDS011;8313;49.894;8.084;2023-04-16T13:48:39;17.30;;;11.60;;
16407;SDS011;8313;49.894;8.084;2023-04-16T13:51:05;16.17;;;9.87;;
16407;SDS011;8313;49.894;8.084;2023-04-16T13:53:32;18.07;;;11.77;;
16407;SDS011;8313;49.894;8.084;2023-04-16T13:55:58;17.23;;;11.00;;
16407;SDS011;8313;49.894;8.084;2023-04-16T13:58:23;18.90;;;10.07;;
16407;SDS011;8313;49.894;8.084;2023-04-16T14:00:49;18.60;;;11.20;;
16407;SDS011;8313;49.894;8.084;2023-04-16T14:03:15;19.10;;;10.17;;
16407;SDS011;8313;49.894;8.084;2023-04-16T14:05:41;16.80;;;10.50;;
16407;SDS011;8313;49.894;8.084;2023-04-16T14:08:07;15.03;;;10.23;;
16407;SDS011;8313;49.894;8.084;2023-04-16T14:10:34;16.40;;;9.80;;
16407;SDS011;8313;49.894;8.084;2023-04-16T14:12:59;17.30;;;11.20;;
16407;SDS011;8313;49.894;8.084;2023-04-16T14:15:25;15.70;;;11.60;;
16407;SDS011;8313;49.894;8.084;2023-04-16T14:17:53;16.80;;;10.60;;
16407;SDS011;8313;49.894;8.084;2023-04-16T14:20:19;15.60;;;9.40;;
16407;SDS011;8313;49.894;8.084;2023-04-16T14:22:45;16.40;;;10.67;;
16407;SDS011;8313;49.894;8.084;2023-04-16T14:25:11;14.83;;;10.33;;
16407;SDS011;8313;49.894;8.084;2023-04-16T14:27:37;16.60;;;10.20;;
16407;SDS011;8313;49.894;8.084;2023-04-16T14:30:03;37.00;;;11.43;;
16407;SDS011;8313;49.894;8.084;2023-04-16T14:32:30;22.90;;;11.63;;
16407;SDS011;8313;49.894;8.084;2023-04-16T14:34:55;21.67;;;13.83;;
16407;SDS011;8313;49.894;8.084;2023-04-16T14:37:21;14.77;;;10.70;;
16407;SDS011;8313;49.894;8.084;2023-04-16T14:39:47;22.53;;;10.57;;
16407;SDS011;8313;49.894;8.084;2023-04-16T14:42:13;17.10;;;10.67;;
16407;SDS011;8313;49.894;8.084;2023-04-16T14:44:39;19.83;;;11.70;;
16407;SDS011;8313;49.894;8.084;2023-04-16T14:47:04;16.43;;;10.03;;
16407;SDS011;8313;49.894;8.084;2023-04-16T14:49:30;16.93;;;11.37;;
16407;SDS011;8313;49.894;8.084;2023-04-16T14:51:56;19.13;;;13.33;;
16407;SDS011;8313;49.894;8.084;2023-04-16T14:54:22;19.37;;;11.43;;
16407;SDS011;8313;49.894;8.084;2023-04-16T14:56:48;20.97;;;12.73;;
16407;SDS011;8313;49.894;8.084;2023-04-16T14:59:14;15.97;;;11.53;;